sensor_id;sensor_type;location;lat;lon;timestamp;temperature;humidity
39655;DHT22;25336;59.944;11.010;2022-08-05T00:01:38;18.20;73.20
39655;DHT22;25336;59.944;11.010;2022-08-05T00:04:04;18.20;73.10
39655;DHT22;25336;59.944;11.010;2022-08-05T00:06:30;18.10;73.20
39655;DHT22;25336;59.944;11.010;2022-08-05T00:08:55;18.10;73.20
39655;DHT22;25336;59.944;11.010;2022-08-05T00:11:21;18.10;73.30
39655;DHT22;25336;59.944;11.010;2022-08-05T00:13:46;18.10;73.40
39655;DHT22;25336;59.944;11.010;2022-08-05T00:16:14;18.00;73.40
39655;DHT22;25336;59.944;11.010;2022-08-05T00:18:42;18.00;73.60
39655;DHT22;25336;59.944;11.010;2022-08-05T00:21:08;18.00;73.80
39655;DHT22;25336;59.944;11.010;2022-08-05T00:23:34;18.30;74.10
39655;DHT22;25336;59.944;11.010;2022-08-05T00:26:00;18.50;74.60
39655;DHT22;25336;59.944;11.010;2022-08-05T00:28:26;18.00;74.40
39655;DHT22;25336;59.944;11.010;2022-08-05T00:30:51;18.00;74.50
39655;DHT22;25336;59.944;11.010;2022-08-05T00:33:17;18.00;74.60
39655;DHT22;25336;59.944;11.010;2022-08-05T00:35:42;18.10;74.70
39655;DHT22;25336;59.944;11.010;2022-08-05T00:38:08;18.10;74.80
39655;DHT22;25336;59.944;11.010;2022-08-05T00:40:52;19.20;75.50
39655;DHT22;25336;59.944;11.010;2022-08-05T00:43:19;18.20;75.30
39655;DHT22;25336;59.944;11.010;2022-08-05T00:45:45;18.20;74.90
39655;DHT22;25336;59.944;11.010;2022-08-05T00:48:13;18.30;75.00
39655;DHT22;25336;59.944;11.010;2022-08-05T00:50:41;18.30;75.00
39655;DHT22;25336;59.944;11.010;2022-08-05T00:53:07;18.50;75.00
39655;DHT22;25336;59.944;11.010;2022-08-05T00:55:32;18.40;74.80
39655;DHT22;25336;59.944;11.010;2022-08-05T00:57:58;18.40;74.90
39655;DHT22;25336;59.944;11.010;2022-08-05T01:00:25;18.80;75.20
39655;DHT22;25336;59.944;11.010;2022-08-05T01:02:51;18.40;74.80
39655;DHT22;25336;59.944;11.010;2022-08-05T01:05:20;18.50;74.90
39655;DHT22;25336;59.944;11.010;2022-08-05T01:07:45;18.50;75.00
39655;DHT22;25336;59.944;11.010;2022-08-05T01:10:13;18.50;74.80
39655;DHT22;25336;59.944;11.010;2022-08-05T01:12:46;18.60;74.70
39655;DHT22;25336;59.944;11.010;2022-08-05T01:15:16;18.50;74.50
39655;DHT22;25336;59.944;11.010;2022-08-05T01:17:50;18.50;74.20
39655;DHT22;25336;59.944;11.010;2022-08-05T01:26:34;19.60;74.60
39655;DHT22;25336;59.944;11.010;2022-08-05T01:29:04;18.50;73.60
39655;DHT22;25336;59.944;11.010;2022-08-05T01:31:47;18.40;73.70
39655;DHT22;25336;59.944;11.010;2022-08-05T01:34:27;18.40;73.80
39655;DHT22;25336;59.944;11.010;2022-08-05T01:37:01;18.30;73.70
39655;DHT22;25336;59.944;11.010;2022-08-05T01:39:29;18.70;73.70
39655;DHT22;25336;59.944;11.010;2022-08-05T01:41:57;18.60;73.40
39655;DHT22;25336;59.944;11.010;2022-08-05T01:44:24;19.00;73.80
39655;DHT22;25336;59.944;11.010;2022-08-05T01:46:51;18.60;73.60
39655;DHT22;25336;59.944;11.010;2022-08-05T01:49:21;18.20;73.40
39655;DHT22;25336;59.944;11.010;2022-08-05T01:51:49;18.20;73.60
39655;DHT22;25336;59.944;11.010;2022-08-05T01:54:18;18.20;73.60
39655;DHT22;25336;59.944;11.010;2022-08-05T01:56:45;18.70;74.70
39655;DHT22;25336;59.944;11.010;2022-08-05T01:59:14;18.40;73.80
39655;DHT22;25336;59.944;11.010;2022-08-05T02:01:42;18.10;73.70
39655;DHT22;25336;59.944;11.010;2022-08-05T02:04:11;18.10;73.70
39655;DHT22;25336;59.944;11.010;2022-08-05T02:06:39;18.10;73.60
39655;DHT22;25336;59.944;11.010;2022-08-05T02:09:05;18.10;73.50
39655;DHT22;25336;59.944;11.010;2022-08-05T02:11:56;18.10;73.60
39655;DHT22;25336;59.944;11.010;2022-08-05T02:14:26;18.10;74.20
39655;DHT22;25336;59.944;11.010;2022-08-05T02:16:54;18.10;74.10
39655;DHT22;25336;59.944;11.010;2022-08-05T02:24:47;18.10;74.40
39655;DHT22;25336;59.944;11.010;2022-08-05T02:27:14;18.10;74.20
39655;DHT22;25336;59.944;11.010;2022-08-05T02:29:43;18.10;74.20
39655;DHT22;25336;59.944;11.010;2022-08-05T02:32:10;18.10;74.20
39655;DHT22;25336;59.944;11.010;2022-08-05T02:34:37;18.10;74.20
39655;DHT22;25336;59.944;11.010;2022-08-05T02:37:07;18.10;74.10
39655;DHT22;25336;59.944;11.010;2022-08-05T02:39:38;18.20;74.30
39655;DHT22;25336;59.944;11.010;2022-08-05T02:42:06;18.20;74.40
39655;DHT22;25336;59.944;11.010;2022-08-05T02:44:34;18.20;74.30
39655;DHT22;25336;59.944;11.010;2022-08-05T02:47:03;18.20;74.40
39655;DHT22;25336;59.944;11.010;2022-08-05T02:49:33;18.20;74.30
39655;DHT22;25336;59.944;11.010;2022-08-05T02:51:59;18.40;74.40
39655;DHT22;25336;59.944;11.010;2022-08-05T02:54:26;18.30;74.20
39655;DHT22;25336;59.944;11.010;2022-08-05T02:56:52;18.30;74.20
39655;DHT22;25336;59.944;11.010;2022-08-05T02:59:19;18.30;74.10
39655;DHT22;25336;59.944;11.010;2022-08-05T03:01:48;18.30;74.10
39655;DHT22;25336;59.944;11.010;2022-08-05T03:04:17;18.30;74.20
39655;DHT22;25336;59.944;11.010;2022-08-05T03:06:43;18.30;74.10
39655;DHT22;25336;59.944;11.010;2022-08-05T03:09:12;18.30;73.90
39655;DHT22;25336;59.944;11.010;2022-08-05T03:11:41;18.30;73.70
39655;DHT22;25336;59.944;11.010;2022-08-05T03:14:08;19.00;73.90
39655;DHT22;25336;59.944;11.010;2022-08-05T03:16:34;18.20;73.30
39655;DHT22;25336;59.944;11.010;2022-08-05T03:19:00;18.30;73.40
39655;DHT22;25336;59.944;11.010;2022-08-05T03:21:26;18.20;73.40
39655;DHT22;25336;59.944;11.010;2022-08-05T03:23:52;18.20;73.40
39655;DHT22;25336;59.944;11.010;2022-08-05T03:26:18;18.10;73.40
39655;DHT22;25336;59.944;11.010;2022-08-05T03:28:44;18.10;73.40
39655;DHT22;25336;59.944;11.010;2022-08-05T03:31:10;18.10;73.30
39655;DHT22;25336;59.944;11.010;2022-08-05T03:33:37;18.10;73.30
39655;DHT22;25336;59.944;11.010;2022-08-05T03:36:04;18.40;73.40
39655;DHT22;25336;59.944;11.010;2022-08-05T03:38:30;18.00;73.40
39655;DHT22;25336;59.944;11.010;2022-08-05T03:40:55;17.90;73.50
39655;DHT22;25336;59.944;11.010;2022-08-05T03:43:21;18.00;73.70
39655;DHT22;25336;59.944;11.010;2022-08-05T03:45:51;19.00;74.30
39655;DHT22;25336;59.944;11.010;2022-08-05T03:48:18;18.30;73.90
39655;DHT22;25336;59.944;11.010;2022-08-05T03:51:51;17.90;73.70
39655;DHT22;25336;59.944;11.010;2022-08-05T03:53:51;17.90;73.80
39655;DHT22;25336;59.944;11.010;2022-08-05T03:56:51;17.90;73.90
39655;DHT22;25336;59.944;11.010;2022-08-05T03:59:41;17.90;74.00
39655;DHT22;25336;59.944;11.010;2022-08-05T04:02:09;17.90;73.60
39655;DHT22;25336;59.944;11.010;2022-08-05T04:04:36;18.30;73.70
39655;DHT22;25336;59.944;11.010;2022-08-05T04:07:02;17.90;73.40
39655;DHT22;25336;59.944;11.010;2022-08-05T04:09:30;17.90;73.40
39655;DHT22;25336;59.944;11.010;2022-08-05T04:11:56;18.80;73.90
39655;DHT22;25336;59.944;11.010;2022-08-05T04:14:23;17.90;73.20
39655;DHT22;25336;59.944;11.010;2022-08-05T04:16:49;17.80;72.80
39655;DHT22;25336;59.944;11.010;2022-08-05T04:19:15;18.80;73.20
39655;DHT22;25336;59.944;11.010;2022-08-05T04:21:40;17.80;72.10
39655;DHT22;25336;59.944;11.010;2022-08-05T04:24:08;17.80;72.00
39655;DHT22;25336;59.944;11.010;2022-08-05T04:26:34;17.70;71.50
39655;DHT22;25336;59.944;11.010;2022-08-05T04:28:59;18.20;71.60
39655;DHT22;25336;59.944;11.010;2022-08-05T04:31:25;17.60;71.20
39655;DHT22;25336;59.944;11.010;2022-08-05T04:33:51;17.60;71.30
39655;DHT22;25336;59.944;11.010;2022-08-05T04:36:16;17.50;71.30
39655;DHT22;25336;59.944;11.010;2022-08-05T04:38:42;17.40;71.10
39655;DHT22;25336;59.944;11.010;2022-08-05T04:41:08;17.40;71.10
39655;DHT22;25336;59.944;11.010;2022-08-05T04:43:34;17.30;71.20
39655;DHT22;25336;59.944;11.010;2022-08-05T04:46:00;17.30;71.40
39655;DHT22;25336;59.944;11.010;2022-08-05T04:48:26;18.20;72.30
39655;DHT22;25336;59.944;11.010;2022-08-05T04:50:51;17.30;71.80
39655;DHT22;25336;59.944;11.010;2022-08-05T04:53:17;17.30;71.80
39655;DHT22;25336;59.944;11.010;2022-08-05T04:55:44;17.30;71.60
39655;DHT22;25336;59.944;11.010;2022-08-05T04:58:12;17.60;71.80
39655;DHT22;25336;59.944;11.010;2022-08-05T05:00:38;17.40;71.50
39655;DHT22;25336;59.944;11.010;2022-08-05T05:03:05;18.30;71.80
39655;DHT22;25336;59.944;11.010;2022-08-05T05:05:32;17.70;71.30
39655;DHT22;25336;59.944;11.010;2022-08-05T05:08:02;17.80;71.10
39655;DHT22;25336;59.944;11.010;2022-08-05T05:10:42;17.40;70.60
39655;DHT22;25336;59.944;11.010;2022-08-05T05:13:11;17.50;70.20
39655;DHT22;25336;59.944;11.010;2022-08-05T05:15:38;17.40;70.10
39655;DHT22;25336;59.944;11.010;2022-08-05T05:18:04;17.40;70.20
39655;DHT22;25336;59.944;11.010;2022-08-05T05:20:32;17.40;70.10
39655;DHT22;25336;59.944;11.010;2022-08-05T05:22:58;17.40;70.10
39655;DHT22;25336;59.944;11.010;2022-08-05T05:25:25;17.40;70.00
39655;DHT22;25336;59.944;11.010;2022-08-05T05:27:51;17.70;70.10
39655;DHT22;25336;59.944;11.010;2022-08-05T05:30:18;17.40;69.80
39655;DHT22;25336;59.944;11.010;2022-08-05T05:32:43;17.30;69.70
39655;DHT22;25336;59.944;11.010;2022-08-05T05:35:09;17.40;69.60
39655;DHT22;25336;59.944;11.010;2022-08-05T05:37:56;17.40;69.50
39655;DHT22;25336;59.944;11.010;2022-08-05T05:40:24;17.40;69.00
39655;DHT22;25336;59.944;11.010;2022-08-05T05:42:50;17.40;69.40
39655;DHT22;25336;59.944;11.010;2022-08-05T05:45:16;17.40;69.40
39655;DHT22;25336;59.944;11.010;2022-08-05T05:47:42;17.40;69.20
39655;DHT22;25336;59.944;11.010;2022-08-05T05:50:10;17.50;69.20
39655;DHT22;25336;59.944;11.010;2022-08-05T05:52:36;18.30;69.60
39655;DHT22;25336;59.944;11.010;2022-08-05T05:55:04;17.50;68.90
39655;DHT22;25336;59.944;11.010;2022-08-05T05:57:29;17.50;68.80
39655;DHT22;25336;59.944;11.010;2022-08-05T05:59:55;17.50;69.30
39655;DHT22;25336;59.944;11.010;2022-08-05T06:02:21;17.50;68.60
39655;DHT22;25336;59.944;11.010;2022-08-05T06:04:46;17.50;68.40
39655;DHT22;25336;59.944;11.010;2022-08-05T06:07:12;17.90;68.50
39655;DHT22;25336;59.944;11.010;2022-08-05T06:09:38;17.50;67.90
39655;DHT22;25336;59.944;11.010;2022-08-05T06:12:03;18.30;68.40
39655;DHT22;25336;59.944;11.010;2022-08-05T06:14:30;17.50;68.00
39655;DHT22;25336;59.944;11.010;2022-08-05T06:16:56;17.50;67.80
39655;DHT22;25336;59.944;11.010;2022-08-05T06:19:21;18.20;67.90
39655;DHT22;25336;59.944;11.010;2022-08-05T06:21:47;17.60;67.60
39655;DHT22;25336;59.944;11.010;2022-08-05T06:24:13;17.60;67.30
39655;DHT22;25336;59.944;11.010;2022-08-05T06:26:42;18.00;67.30
39655;DHT22;25336;59.944;11.010;2022-08-05T06:29:08;17.60;66.80
39655;DHT22;25336;59.944;11.010;2022-08-05T06:31:33;17.70;66.80
39655;DHT22;25336;59.944;11.010;2022-08-05T06:33:59;17.70;66.60
39655;DHT22;25336;59.944;11.010;2022-08-05T06:36:25;18.30;66.60
39655;DHT22;25336;59.944;11.010;2022-08-05T06:38:50;18.00;66.10
39655;DHT22;25336;59.944;11.010;2022-08-05T06:41:19;18.50;66.30
39655;DHT22;25336;59.944;11.010;2022-08-05T06:43:45;17.80;65.70
39655;DHT22;25336;59.944;11.010;2022-08-05T06:46:10;17.80;65.80
39655;DHT22;25336;59.944;11.010;2022-08-05T06:48:36;18.80;66.50
39655;DHT22;25336;59.944;11.010;2022-08-05T06:51:05;17.90;65.50
39655;DHT22;25336;59.944;11.010;2022-08-05T06:53:31;17.90;65.10
39655;DHT22;25336;59.944;11.010;2022-08-05T06:55:58;17.90;65.40
39655;DHT22;25336;59.944;11.010;2022-08-05T06:58:24;17.90;65.20
39655;DHT22;25336;59.944;11.010;2022-08-05T07:00:51;18.70;65.30
39655;DHT22;25336;59.944;11.010;2022-08-05T07:03:17;18.00;64.60
39655;DHT22;25336;59.944;11.010;2022-08-05T07:05:43;18.00;64.60
39655;DHT22;25336;59.944;11.010;2022-08-05T07:08:09;17.90;64.60
39655;DHT22;25336;59.944;11.010;2022-08-05T07:10:34;18.00;64.50
39655;DHT22;25336;59.944;11.010;2022-08-05T07:13:00;18.50;64.80
39655;DHT22;25336;59.944;11.010;2022-08-05T07:15:44;18.00;64.00
39655;DHT22;25336;59.944;11.010;2022-08-05T07:18:29;18.10;64.40
39655;DHT22;25336;59.944;11.010;2022-08-05T07:20:54;18.00;64.20
39655;DHT22;25336;59.944;11.010;2022-08-05T07:23:20;18.10;63.90
39655;DHT22;25336;59.944;11.010;2022-08-05T07:25:45;18.10;63.20
39655;DHT22;25336;59.944;11.010;2022-08-05T07:28:11;18.10;62.50
39655;DHT22;25336;59.944;11.010;2022-08-05T07:30:37;18.20;62.00
39655;DHT22;25336;59.944;11.010;2022-08-05T07:33:04;18.20;62.20
39655;DHT22;25336;59.944;11.010;2022-08-05T07:35:30;18.20;61.80
39655;DHT22;25336;59.944;11.010;2022-08-05T07:37:55;18.30;61.60
39655;DHT22;25336;59.944;11.010;2022-08-05T07:40:21;18.30;60.90
39655;DHT22;25336;59.944;11.010;2022-08-05T07:42:47;18.30;60.40
39655;DHT22;25336;59.944;11.010;2022-08-05T07:45:13;18.40;60.60
39655;DHT22;25336;59.944;11.010;2022-08-05T07:47:40;18.40;60.40
39655;DHT22;25336;59.944;11.010;2022-08-05T07:50:06;18.50;60.10
39655;DHT22;25336;59.944;11.010;2022-08-05T07:52:34;18.50;59.70
39655;DHT22;25336;59.944;11.010;2022-08-05T07:55:02;18.60;58.20
39655;DHT22;25336;59.944;11.010;2022-08-05T07:57:27;18.60;58.30
39655;DHT22;25336;59.944;11.010;2022-08-05T07:59:53;19.00;59.00
39655;DHT22;25336;59.944;11.010;2022-08-05T08:02:24;18.70;58.40
39655;DHT22;25336;59.944;11.010;2022-08-05T08:04:50;18.70;57.50
39655;DHT22;25336;59.944;11.010;2022-08-05T08:07:17;19.70;58.20
39655;DHT22;25336;59.944;11.010;2022-08-05T08:09:43;18.80;57.80
39655;DHT22;25336;59.944;11.010;2022-08-05T08:12:09;18.80;57.60
39655;DHT22;25336;59.944;11.010;2022-08-05T08:14:34;18.80;57.70
39655;DHT22;25336;59.944;11.010;2022-08-05T08:17:00;18.90;57.70
39655;DHT22;25336;59.944;11.010;2022-08-05T08:19:25;18.80;57.20
39655;DHT22;25336;59.944;11.010;2022-08-05T08:21:51;18.80;56.70
39655;DHT22;25336;59.944;11.010;2022-08-05T08:24:16;18.80;57.10
39655;DHT22;25336;59.944;11.010;2022-08-05T08:26:42;18.80;57.20
39655;DHT22;25336;59.944;11.010;2022-08-05T08:29:11;18.90;57.40
39655;DHT22;25336;59.944;11.010;2022-08-05T08:31:36;18.80;57.10
39655;DHT22;25336;59.944;11.010;2022-08-05T08:34:02;18.90;57.40
39655;DHT22;25336;59.944;11.010;2022-08-05T08:36:27;19.00;57.40
39655;DHT22;25336;59.944;11.010;2022-08-05T08:38:53;19.00;57.10
39655;DHT22;25336;59.944;11.010;2022-08-05T08:41:22;19.00;56.90
39655;DHT22;25336;59.944;11.010;2022-08-05T08:43:49;19.10;56.60
39655;DHT22;25336;59.944;11.010;2022-08-05T08:46:17;19.10;56.20
39655;DHT22;25336;59.944;11.010;2022-08-05T08:48:45;19.20;56.50
39655;DHT22;25336;59.944;11.010;2022-08-05T08:51:11;19.80;56.70
39655;DHT22;25336;59.944;11.010;2022-08-05T08:53:37;20.00;56.80
39655;DHT22;25336;59.944;11.010;2022-08-05T08:56:04;20.20;56.90
39655;DHT22;25336;59.944;11.010;2022-08-05T08:58:30;19.40;56.20
39655;DHT22;25336;59.944;11.010;2022-08-05T09:00:56;19.40;56.50
39655;DHT22;25336;59.944;11.010;2022-08-05T09:03:23;19.40;56.50
39655;DHT22;25336;59.944;11.010;2022-08-05T09:05:49;19.50;56.10
39655;DHT22;25336;59.944;11.010;2022-08-05T09:08:15;19.60;56.00
39655;DHT22;25336;59.944;11.010;2022-08-05T09:10:41;20.10;56.30
39655;DHT22;25336;59.944;11.010;2022-08-05T09:13:12;19.70;55.90
39655;DHT22;25336;59.944;11.010;2022-08-05T09:15:38;19.80;55.60
39655;DHT22;25336;59.944;11.010;2022-08-05T09:18:08;20.70;56.10
39655;DHT22;25336;59.944;11.010;2022-08-05T09:20:35;19.90;54.80
39655;DHT22;25336;59.944;11.010;2022-08-05T09:23:02;20.00;54.80
39655;DHT22;25336;59.944;11.010;2022-08-05T09:25:28;20.30;54.70
39655;DHT22;25336;59.944;11.010;2022-08-05T09:27:54;20.10;54.30
39655;DHT22;25336;59.944;11.010;2022-08-05T09:30:22;20.20;53.90
39655;DHT22;25336;59.944;11.010;2022-08-05T09:32:48;20.30;53.40
39655;DHT22;25336;59.944;11.010;2022-08-05T09:35:15;20.30;53.20
39655;DHT22;25336;59.944;11.010;2022-08-05T09:37:52;21.10;52.70
39655;DHT22;25336;59.944;11.010;2022-08-05T09:40:39;20.70;51.70
39655;DHT22;25336;59.944;11.010;2022-08-05T09:43:07;20.50;51.20
39655;DHT22;25336;59.944;11.010;2022-08-05T09:45:39;20.60;52.40
39655;DHT22;25336;59.944;11.010;2022-08-05T09:48:25;20.70;51.30
39655;DHT22;25336;59.944;11.010;2022-08-05T09:50:56;20.70;50.50
39655;DHT22;25336;59.944;11.010;2022-08-05T09:53:23;20.70;51.00
39655;DHT22;25336;59.944;11.010;2022-08-05T09:56:06;21.10;51.20
39655;DHT22;25336;59.944;11.010;2022-08-05T09:58:32;20.70;49.50
39655;DHT22;25336;59.944;11.010;2022-08-05T10:01:02;20.80;50.70
39655;DHT22;25336;59.944;11.010;2022-08-05T10:03:28;20.80;50.80
39655;DHT22;25336;59.944;11.010;2022-08-05T10:06:09;20.80;50.30
39655;DHT22;25336;59.944;11.010;2022-08-05T10:08:37;20.80;49.40
39655;DHT22;25336;59.944;11.010;2022-08-05T10:11:04;20.90;50.90
39655;DHT22;25336;59.944;11.010;2022-08-05T10:13:37;20.90;51.00
39655;DHT22;25336;59.944;11.010;2022-08-05T10:16:05;21.00;50.70
39655;DHT22;25336;59.944;11.010;2022-08-05T10:18:31;21.10;50.70
39655;DHT22;25336;59.944;11.010;2022-08-05T10:21:04;21.20;50.10
39655;DHT22;25336;59.944;11.010;2022-08-05T10:23:32;21.20;49.60
39655;DHT22;25336;59.944;11.010;2022-08-05T10:26:02;21.30;50.00
39655;DHT22;25336;59.944;11.010;2022-08-05T10:28:28;21.40;49.70
39655;DHT22;25336;59.944;11.010;2022-08-05T10:30:55;21.40;49.90
39655;DHT22;25336;59.944;11.010;2022-08-05T10:33:22;21.40;49.40
39655;DHT22;25336;59.944;11.010;2022-08-05T10:35:53;21.50;49.00
39655;DHT22;25336;59.944;11.010;2022-08-05T10:38:21;21.50;48.50
39655;DHT22;25336;59.944;11.010;2022-08-05T10:40:55;21.60;49.00
39655;DHT22;25336;59.944;11.010;2022-08-05T10:45:59;21.70;49.20
39655;DHT22;25336;59.944;11.010;2022-08-05T10:48:29;21.70;49.70
39655;DHT22;25336;59.944;11.010;2022-08-05T10:51:01;21.80;49.40
39655;DHT22;25336;59.944;11.010;2022-08-05T10:53:43;21.90;49.10
39655;DHT22;25336;59.944;11.010;2022-08-05T10:56:14;22.00;49.00
39655;DHT22;25336;59.944;11.010;2022-08-05T10:59:06;22.10;49.20
39655;DHT22;25336;59.944;11.010;2022-08-05T11:01:40;22.30;48.00
39655;DHT22;25336;59.944;11.010;2022-08-05T11:04:12;22.40;48.00
39655;DHT22;25336;59.944;11.010;2022-08-05T11:09:27;22.60;47.60
39655;DHT22;25336;59.944;11.010;2022-08-05T11:12:00;22.70;48.20
39655;DHT22;25336;59.944;11.010;2022-08-05T11:14:32;22.70;47.90
39655;DHT22;25336;59.944;11.010;2022-08-05T11:19:55;23.00;46.00
39655;DHT22;25336;59.944;11.010;2022-08-05T11:22:42;23.10;47.20
39655;DHT22;25336;59.944;11.010;2022-08-05T11:27:53;23.30;44.50
39655;DHT22;25336;59.944;11.010;2022-08-05T11:30:20;23.40;46.50
39655;DHT22;25336;59.944;11.010;2022-08-05T11:32:48;23.40;46.00
39655;DHT22;25336;59.944;11.010;2022-08-05T11:38:18;23.50;44.00
39655;DHT22;25336;59.944;11.010;2022-08-05T11:40:57;23.60;45.10
39655;DHT22;25336;59.944;11.010;2022-08-05T11:43:25;23.60;43.80
39655;DHT22;25336;59.944;11.010;2022-08-05T11:45:51;23.60;44.30
39655;DHT22;25336;59.944;11.010;2022-08-05T11:48:17;23.70;43.80
39655;DHT22;25336;59.944;11.010;2022-08-05T11:50:43;23.70;43.60
39655;DHT22;25336;59.944;11.010;2022-08-05T11:53:08;23.70;44.80
39655;DHT22;25336;59.944;11.010;2022-08-05T11:55:34;23.80;43.90
39655;DHT22;25336;59.944;11.010;2022-08-05T11:58:00;23.80;43.70
39655;DHT22;25336;59.944;11.010;2022-08-05T12:00:26;24.80;43.70
39655;DHT22;25336;59.944;11.010;2022-08-05T12:02:52;23.80;42.70
39655;DHT22;25336;59.944;11.010;2022-08-05T12:05:25;23.70;42.80
39655;DHT22;25336;59.944;11.010;2022-08-05T12:07:56;23.70;42.90
39655;DHT22;25336;59.944;11.010;2022-08-05T12:10:25;23.70;42.50
39655;DHT22;25336;59.944;11.010;2022-08-05T12:12:52;23.70;42.40
39655;DHT22;25336;59.944;11.010;2022-08-05T12:15:19;23.70;42.10
39655;DHT22;25336;59.944;11.010;2022-08-05T12:17:45;23.70;42.40
39655;DHT22;25336;59.944;11.010;2022-08-05T12:20:11;23.70;42.40
39655;DHT22;25336;59.944;11.010;2022-08-05T12:22:37;23.80;42.40
39655;DHT22;25336;59.944;11.010;2022-08-05T12:25:04;23.80;42.90
39655;DHT22;25336;59.944;11.010;2022-08-05T12:27:30;23.90;41.80
39655;DHT22;25336;59.944;11.010;2022-08-05T12:30:10;24.00;42.30
39655;DHT22;25336;59.944;11.010;2022-08-05T12:32:47;24.00;41.20
39655;DHT22;25336;59.944;11.010;2022-08-05T12:35:18;24.10;41.20
39655;DHT22;25336;59.944;11.010;2022-08-05T12:37:45;24.20;41.20
39655;DHT22;25336;59.944;11.010;2022-08-05T12:40:12;24.20;41.10
39655;DHT22;25336;59.944;11.010;2022-08-05T12:42:38;24.30;41.00
39655;DHT22;25336;59.944;11.010;2022-08-05T12:45:13;24.30;40.00
39655;DHT22;25336;59.944;11.010;2022-08-05T12:47:38;24.40;40.30
39655;DHT22;25336;59.944;11.010;2022-08-05T12:50:13;24.40;40.50
39655;DHT22;25336;59.944;11.010;2022-08-05T12:52:39;24.40;40.60
39655;DHT22;25336;59.944;11.010;2022-08-05T12:55:21;24.50;40.60
39655;DHT22;25336;59.944;11.010;2022-08-05T12:57:47;24.50;40.00
39655;DHT22;25336;59.944;11.010;2022-08-05T13:00:20;24.50;40.40
39655;DHT22;25336;59.944;11.010;2022-08-05T13:02:46;24.40;39.30
39655;DHT22;25336;59.944;11.010;2022-08-05T13:05:12;24.30;39.90
39655;DHT22;25336;59.944;11.010;2022-08-05T13:07:42;24.20;40.40
39655;DHT22;25336;59.944;11.010;2022-08-05T13:10:11;24.20;39.50
39655;DHT22;25336;59.944;11.010;2022-08-05T13:12:41;24.20;40.00
39655;DHT22;25336;59.944;11.010;2022-08-05T13:15:12;24.10;40.00
39655;DHT22;25336;59.944;11.010;2022-08-05T13:17:38;24.10;40.10
39655;DHT22;25336;59.944;11.010;2022-08-05T13:22:40;24.00;41.00
39655;DHT22;25336;59.944;11.010;2022-08-05T13:25:09;24.00;40.60
39655;DHT22;25336;59.944;11.010;2022-08-05T13:27:38;24.00;40.90
39655;DHT22;25336;59.944;11.010;2022-08-05T13:30:08;23.90;41.20
39655;DHT22;25336;59.944;11.010;2022-08-05T13:32:34;23.90;41.40
39655;DHT22;25336;59.944;11.010;2022-08-05T13:35:00;23.90;41.70
39655;DHT22;25336;59.944;11.010;2022-08-05T13:37:26;23.90;41.90
39655;DHT22;25336;59.944;11.010;2022-08-05T13:39:52;23.90;40.60
39655;DHT22;25336;59.944;11.010;2022-08-05T13:42:19;23.90;40.40
39655;DHT22;25336;59.944;11.010;2022-08-05T13:44:46;24.00;40.20
39655;DHT22;25336;59.944;11.010;2022-08-05T13:47:14;24.00;40.10
39655;DHT22;25336;59.944;11.010;2022-08-05T13:49:40;24.00;40.90
39655;DHT22;25336;59.944;11.010;2022-08-05T13:52:12;24.10;41.60
39655;DHT22;25336;59.944;11.010;2022-08-05T13:54:39;24.20;42.40
39655;DHT22;25336;59.944;11.010;2022-08-05T13:57:06;24.30;41.20
39655;DHT22;25336;59.944;11.010;2022-08-05T13:59:32;24.40;41.00
39655;DHT22;25336;59.944;11.010;2022-08-05T14:01:58;24.50;41.20
39655;DHT22;25336;59.944;11.010;2022-08-05T14:04:25;24.50;40.20
39655;DHT22;25336;59.944;11.010;2022-08-05T14:07:09;24.50;39.60
39655;DHT22;25336;59.944;11.010;2022-08-05T14:09:35;24.50;39.20
39655;DHT22;25336;59.944;11.010;2022-08-05T14:12:02;24.40;38.90
39655;DHT22;25336;59.944;11.010;2022-08-05T14:14:28;24.40;38.60
39655;DHT22;25336;59.944;11.010;2022-08-05T14:16:54;24.30;38.50
39655;DHT22;25336;59.944;11.010;2022-08-05T14:19:19;24.20;38.90
39655;DHT22;25336;59.944;11.010;2022-08-05T14:21:45;24.10;38.80
39655;DHT22;25336;59.944;11.010;2022-08-05T14:24:10;24.00;38.80
39655;DHT22;25336;59.944;11.010;2022-08-05T14:26:37;23.90;38.80
39655;DHT22;25336;59.944;11.010;2022-08-05T14:29:03;23.80;39.10
39655;DHT22;25336;59.944;11.010;2022-08-05T14:31:29;23.70;39.50
39655;DHT22;25336;59.944;11.010;2022-08-05T14:33:55;23.70;39.20
39655;DHT22;25336;59.944;11.010;2022-08-05T14:36:20;23.60;39.00
39655;DHT22;25336;59.944;11.010;2022-08-05T14:38:46;23.50;39.30
39655;DHT22;25336;59.944;11.010;2022-08-05T14:41:11;23.50;39.50
39655;DHT22;25336;59.944;11.010;2022-08-05T14:43:39;23.40;39.30
39655;DHT22;25336;59.944;11.010;2022-08-05T14:46:05;23.40;39.80
39655;DHT22;25336;59.944;11.010;2022-08-05T14:48:30;23.30;39.90
39655;DHT22;25336;59.944;11.010;2022-08-05T14:50:56;23.40;40.30
39655;DHT22;25336;59.944;11.010;2022-08-05T14:53:22;23.40;40.00
39655;DHT22;25336;59.944;11.010;2022-08-05T14:55:47;23.50;39.40
39655;DHT22;25336;59.944;11.010;2022-08-05T14:58:13;23.60;38.90
39655;DHT22;25336;59.944;11.010;2022-08-05T15:00:40;23.60;39.70
39655;DHT22;25336;59.944;11.010;2022-08-05T15:03:06;23.70;38.90
39655;DHT22;25336;59.944;11.010;2022-08-05T15:05:32;23.80;39.00
39655;DHT22;25336;59.944;11.010;2022-08-05T15:07:58;23.90;38.70
39655;DHT22;25336;59.944;11.010;2022-08-05T15:10:23;23.90;38.10
39655;DHT22;25336;59.944;11.010;2022-08-05T15:12:49;23.90;38.60
39655;DHT22;25336;59.944;11.010;2022-08-05T15:15:15;23.90;38.00
39655;DHT22;25336;59.944;11.010;2022-08-05T15:17:41;23.90;37.60
39655;DHT22;25336;59.944;11.010;2022-08-05T15:20:08;23.90;37.50
39655;DHT22;25336;59.944;11.010;2022-08-05T15:22:34;23.90;37.30
39655;DHT22;25336;59.944;11.010;2022-08-05T15:25:00;23.90;38.00
39655;DHT22;25336;59.944;11.010;2022-08-05T15:27:25;23.90;37.90
39655;DHT22;25336;59.944;11.010;2022-08-05T15:29:51;24.00;36.70
39655;DHT22;25336;59.944;11.010;2022-08-05T15:32:17;24.00;36.10
39655;DHT22;25336;59.944;11.010;2022-08-05T15:34:42;24.10;37.30
39655;DHT22;25336;59.944;11.010;2022-08-05T15:37:08;24.10;36.00
39655;DHT22;25336;59.944;11.010;2022-08-05T15:39:34;24.10;36.90
39655;DHT22;25336;59.944;11.010;2022-08-05T15:41:59;24.20;37.00
39655;DHT22;25336;59.944;11.010;2022-08-05T15:44:27;24.20;35.80
39655;DHT22;25336;59.944;11.010;2022-08-05T15:46:53;24.30;35.70
39655;DHT22;25336;59.944;11.010;2022-08-05T15:49:19;24.30;36.20